Aviation Digital Data Service (ADDS)

Output produced by METARs form (2134 UTC 21 May 2022)
found at http://www.aviationweather.gov/metar/data/
 
LCRA 212120Z 21008KT CAVOK 20/16 Q1008 NOSIG
TAF LCRA 211940Z 2121/2215 27008KT CAVOK 
     BECMG 2203/2206 24015G25KT 
     PROB30 
     TEMPO 2204/2212 SCT020 
     PROB30 
     TEMPO 2212/2215 24025G35KT 4000 TSRA SCT020CB
       
LCLK 212130Z 29007KT CAVOK 22/03 Q1008 NOSIG
TAF LCLK 211730Z 2118/2218 03010KT 9999 FEW030 
     BECMG 2118/2121 33007KT 
     BECMG 2205/2208 22020KT 
     PROB30 
     TEMPO 2209/2215 5000 SHRA SCT025TCU
       
LCPH 212130Z 02003KT CAVOK 20/08 Q1009
TAF LCPH 211730Z 2118/2218 33010KT 9999 FEW025 
     BECMG 2118/2121 03007KT 
     BECMG 2205/2208 23018KT 
     PROB40 
     TEMPO 2207/2216 5000 SHRA SCT025TCU 
     PROB30 
     TEMPO 2209/2215 3000 TSRA SCT020CB